マルチなキャプテン!

LUXURY FLIGHT

03-6423-7371

羽田本店:東京都大田区羽田5-11-1
営業時間:10:00~20:00
定休日:毎週 月曜日
セントレア店:愛知県常滑市セントレア1-1
営業時間:10:00~20:00 年中無休

lv

マルチなキャプテン!

STAFF BLOG

2019/05/20 マルチなキャプテン!

おはようございますーーーーーーーー

 

本日の羽田は

 

穏やかな風とともに心地良い陽気です

 

RJTT 192330Z 12008KT 9999 FEW020 SCT070 BKN/// 21/16 Q1017 NOSIG RMK 1CU020 3AC070 A3005

 

が、少し風が強くなってきたかな・・・

 

まぁいっか笑

 

 

 

今回は週末に遊びに来てくださったお客様のご紹介でーす

 

常連様のM様がご友人を連れて遊びに来てくださいましたーーー

 

このご時世、何種類もの趣味を持ち、同時進行されている方も多いと思いますが、

 

大型バイク x 乗り鉄/撮り鉄 x 射撃をマルチにこなす方は珍しいかなと思います。

 

一見バラバラなように見える組み合わせですが、

 

共通点はただ一つ!!!

 

 

お金が掛かってしょうがない。(笑)

 

 

これに尽きます。

 

私も以前、バイクや射撃をしておりました。

 

お金が無さ過ぎて毎日、ざる蕎麦を啜っていた時代がございました。

 

その苦しみを知っているだけに、

 

今このような趣味を楽しみながら、さらには飛行機まで追加しようとしているM様のご友人に頭が下がります。(笑)

 

img_1413

一番印象に残っているのは、操縦技量でしょうか…

 

60分ずつ順番にフライトを楽しんでいただいたのですが、

 

もう、M様と共に、ドン引きしてしまいました。

 

 

上手すぎて。

 

 

それはそれは上手すぎて。(笑)

 

え、お仕事はシミュレーター屋さんですか?

 

レベルで。

 

聞けば

 

「大型バイクでいうスロットル操作やクラッチ操作のような、ミリ単位の修正には慣れています。」

 

との事。

 

確かに納得です。

 

これを機に、ぜひ本気で飛行機の免許取得を目指されてみてはいかがでしょうか。

 

すごく期待できる腕前ではないかと思います

 

 

次回のご来店も心よりお待ちいたしております。

 

この度はご来店誠に有難うございました。

 

 

「感謝」

TOP